createdAt,value
2022-07-28T00:01:18.712Z,101598.66
2022-07-28T00:03:49.044Z,101599.94
2022-07-28T00:06:17.666Z,101600.13
2022-07-28T00:08:45.888Z,101591.69
2022-07-28T00:11:13.953Z,101604.41
2022-07-28T00:13:43.325Z,101601.06
2022-07-28T00:16:11.554Z,101607.34
2022-07-28T00:18:39.917Z,101602.50
2022-07-28T00:21:08.357Z,101591.03
2022-07-28T00:23:38.586Z,101589.06
2022-07-28T00:26:08.484Z,101587.91
2022-07-28T00:28:36.782Z,101594.47
2022-07-28T00:31:07.776Z,101593.34
2022-07-28T00:33:38.310Z,101596.44
2022-07-28T00:36:07.152Z,101601.19
2022-07-28T00:38:40.837Z,101602.09
2022-07-28T00:41:12.688Z,101596.66
2022-07-28T00:43:41.514Z,101597.50
2022-07-28T00:46:11.513Z,101597.63
2022-07-28T00:48:40.423Z,101596.47
2022-07-28T00:51:10.127Z,101590.47
2022-07-28T00:53:38.713Z,101594.91
2022-07-28T00:56:07.607Z,101592.06
2022-07-28T00:58:36.361Z,101598.19
2022-07-28T01:01:05.341Z,101601.75
2022-07-28T01:03:35.990Z,101605.28
2022-07-28T01:06:11.573Z,101610.19
2022-07-28T01:08:51.873Z,101607.56
2022-07-28T01:11:30.817Z,101599.66
2022-07-28T01:14:08.954Z,101602.47
2022-07-28T01:16:41.858Z,101606.66
2022-07-28T01:19:23.662Z,101604.25
2022-07-28T01:21:54.043Z,101603.63
2022-07-28T01:45:17.863Z,101611.25
2022-07-28T01:47:49.298Z,101609.59
2022-07-28T01:50:22.238Z,101609.44
2022-07-28T01:52:51.988Z,101609.44
2022-07-28T01:55:22.358Z,101618.19
2022-07-28T01:57:52.109Z,101613.84
2022-07-28T02:00:20.459Z,101618.03
2022-07-28T02:11:44.472Z,101610.75
2022-07-28T02:14:16.506Z,101609.63
2022-07-28T02:16:48.396Z,101617.72
2022-07-28T02:19:19.522Z,101617.44
2022-07-28T02:21:50.076Z,101611.84
2022-07-28T02:24:22.472Z,101617.19
2022-07-28T02:27:00.858Z,101619.19
2022-07-28T02:29:50.175Z,101610.25
2022-07-28T02:32:27.895Z,101610.22
2022-07-28T02:35:09.417Z,101617.22
2022-07-28T02:37:40.391Z,101621.53
2022-07-28T02:40:14.669Z,101617.09
2022-07-28T02:42:46.506Z,101616.13
2022-07-28T02:45:17.796Z,101613.50
2022-07-28T02:47:51.294Z,101616.19
2022-07-28T02:50:24.349Z,101620.69
2022-07-28T02:52:58.026Z,101610.59
2022-07-28T02:55:27.421Z,101611.31
2022-07-28T02:57:57.080Z,101617.44
2022-07-28T03:00:26.279Z,101608.38
2022-07-28T03:02:56.962Z,101618.91
2022-07-28T03:05:28.769Z,101623.25
2022-07-28T03:07:59.581Z,101624.00
2022-07-28T03:10:33.707Z,101625.00
2022-07-28T03:13:04.126Z,101625.28
2022-07-28T03:15:32.596Z,101621.81
2022-07-28T03:18:01.098Z,101620.66
2022-07-28T03:20:30.771Z,101610.31
2022-07-28T03:22:59.401Z,101623.03
2022-07-28T03:25:33.577Z,101634.59
2022-07-28T03:28:03.812Z,101630.00
2022-07-28T03:30:37.635Z,101631.69
2022-07-28T03:33:06.324Z,101635.06
2022-07-28T03:35:37.998Z,101637.84
2022-07-28T03:38:09.600Z,101643.09
2022-07-28T03:40:39.833Z,101648.28
2022-07-28T03:43:10.766Z,101646.38
2022-07-28T03:45:40.974Z,101647.06
2022-07-28T03:48:10.417Z,101645.28
2022-07-28T03:50:39.766Z,101642.50
2022-07-28T03:53:15.902Z,101648.63
2022-07-28T03:55:43.893Z,101652.13
2022-07-28T03:58:11.882Z,101643.09
2022-07-28T04:00:39.938Z,101637.06
2022-07-28T04:03:35.907Z,101649.22
2022-07-28T04:05:58.262Z,101647.38
2022-07-28T04:08:26.485Z,101659.88
2022-07-28T04:10:54.624Z,101654.66
2022-07-28T04:13:22.759Z,101658.28
2022-07-28T04:15:50.830Z,101657.53
2022-07-28T04:18:19.638Z,101646.06
2022-07-28T04:20:47.801Z,101654.94
2022-07-28T04:23:18.850Z,101653.91
2022-07-28T04:25:46.963Z,101639.56
2022-07-28T04:28:15.469Z,101656.47
2022-07-28T04:30:44.249Z,101659.31
2022-07-28T04:33:12.945Z,101656.53
2022-07-28T04:35:41.024Z,101657.09
2022-07-28T04:38:09.043Z,101660.41
2022-07-28T04:40:39.006Z,101662.75
2022-07-28T04:43:07.079Z,101665.13
2022-07-28T04:45:35.438Z,101667.53
2022-07-28T04:48:03.743Z,101663.78
2022-07-28T04:50:32.185Z,101657.28
2022-07-28T04:53:00.451Z,101653.47
2022-07-28T04:55:28.679Z,101662.06
2022-07-28T04:57:58.061Z,101664.63
2022-07-28T05:00:27.096Z,101666.34
2022-07-28T05:02:55.091Z,101668.06
2022-07-28T05:05:23.141Z,101670.88
2022-07-28T05:07:51.301Z,101666.28
2022-07-28T05:10:19.307Z,101664.19
2022-07-28T05:12:49.251Z,101664.09
2022-07-28T05:15:18.694Z,101657.72
2022-07-28T05:17:46.800Z,101661.97
2022-07-28T05:20:15.064Z,101661.00
2022-07-28T05:22:44.423Z,101658.13
2022-07-28T05:25:17.605Z,101665.19
2022-07-28T05:27:46.567Z,101656.25
2022-07-28T05:30:15.381Z,101669.34
2022-07-28T05:32:46.235Z,101664.78
2022-07-28T05:35:14.444Z,101672.56
2022-07-28T05:37:42.748Z,101674.06
2022-07-28T05:40:13.727Z,101679.50
2022-07-28T05:42:43.251Z,101676.59
2022-07-28T05:45:16.411Z,101674.69
2022-07-28T05:47:49.533Z,101686.03
2022-07-28T05:50:19.681Z,101672.38
2022-07-28T05:52:48.863Z,101679.13
2022-07-28T05:55:17.460Z,101690.44
2022-07-28T05:57:45.617Z,101693.63
2022-07-28T06:00:15.718Z,101694.84
2022-07-28T06:02:47.250Z,101695.34
2022-07-28T06:05:18.113Z,101696.66
2022-07-28T06:07:47.003Z,101691.59
2022-07-28T06:10:18.166Z,101701.25
2022-07-28T06:12:48.757Z,101700.00
2022-07-28T06:15:18.485Z,101698.16
2022-07-28T06:17:48.177Z,101693.47
2022-07-28T06:20:16.908Z,101698.50
2022-07-28T06:22:45.948Z,101700.44
2022-07-28T06:25:15.404Z,101698.44
2022-07-28T06:27:43.507Z,101699.81
2022-07-28T06:30:12.248Z,101693.38
2022-07-28T06:32:40.375Z,101695.91
2022-07-28T06:35:10.788Z,101699.56
2022-07-28T06:37:38.835Z,101693.16
2022-07-28T06:40:08.307Z,101700.19
2022-07-28T06:42:36.433Z,101697.16
2022-07-28T06:45:05.274Z,101700.72
2022-07-28T06:47:33.601Z,101702.31
2022-07-28T06:50:02.497Z,101697.63
2022-07-28T06:52:32.638Z,101701.88
2022-07-28T06:55:00.948Z,101696.28
2022-07-28T06:57:33.535Z,101698.72
2022-07-28T07:00:02.686Z,101696.75
2022-07-28T07:02:30.917Z,101708.72
2022-07-28T07:04:59.363Z,101704.69
2022-07-28T07:07:27.422Z,101706.97
2022-07-28T07:09:56.912Z,101710.03
2022-07-28T07:12:25.023Z,101706.31
2022-07-28T07:14:54.073Z,101707.25
2022-07-28T07:17:22.134Z,101697.56
2022-07-28T07:19:50.173Z,101701.97
2022-07-28T07:22:18.260Z,101708.47
2022-07-28T07:24:46.304Z,101706.94
2022-07-28T07:27:15.759Z,101709.25
2022-07-28T07:29:43.857Z,101709.97
2022-07-28T07:32:12.042Z,101701.44
2022-07-28T07:34:40.439Z,101707.19
2022-07-28T07:37:13.577Z,101706.41
2022-07-28T07:39:42.542Z,101708.25
2022-07-28T07:42:10.719Z,101710.94
2022-07-28T07:44:40.141Z,101713.78
2022-07-28T07:47:10.113Z,101709.03
2022-07-28T07:49:45.639Z,101714.13
2022-07-28T07:52:14.838Z,101715.50
2022-07-28T07:54:43.179Z,101715.84
2022-07-28T07:57:11.650Z,101717.13
2022-07-28T07:59:47.116Z,101646.63
2022-07-28T08:02:16.520Z,101713.81
2022-07-28T08:04:44.742Z,101715.47
2022-07-28T08:07:12.863Z,101721.59
2022-07-28T08:09:42.509Z,101720.09
2022-07-28T08:12:10.755Z,101710.25
2022-07-28T08:14:38.828Z,101719.09
2022-07-28T08:17:06.907Z,101711.06
2022-07-28T08:19:37.436Z,101706.88
2022-07-28T08:22:05.575Z,101709.72
2022-07-28T08:24:34.503Z,101712.28
2022-07-28T08:27:03.012Z,101709.31
2022-07-28T08:29:31.364Z,101713.44
2022-07-28T08:32:01.320Z,101713.50
2022-07-28T08:34:33.199Z,101720.78
2022-07-28T08:37:05.013Z,101718.09
2022-07-28T08:39:34.385Z,101715.91
2022-07-28T08:42:06.716Z,101717.47
2022-07-28T08:44:45.536Z,101711.47
2022-07-28T08:47:14.422Z,101712.88
2022-07-28T08:49:43.656Z,101709.69
2022-07-28T08:52:14.495Z,101709.91
2022-07-28T08:54:45.877Z,101714.84
2022-07-28T08:57:17.946Z,101709.03
2022-07-28T08:59:47.727Z,101706.16
2022-07-28T09:02:17.180Z,101712.16
2022-07-28T09:04:46.395Z,101708.38
2022-07-28T09:07:16.823Z,101705.34
2022-07-28T09:09:45.542Z,101707.81
2022-07-28T09:12:13.580Z,101700.66
2022-07-28T09:14:41.818Z,101702.69
2022-07-28T09:17:09.985Z,101710.94
2022-07-28T09:19:38.720Z,101701.81
2022-07-28T09:22:08.141Z,101703.75
2022-07-28T09:24:40.168Z,101709.03
2022-07-28T09:27:10.488Z,101701.50
2022-07-28T09:29:40.156Z,101710.72
2022-07-28T09:32:09.390Z,101707.16
2022-07-28T09:34:42.448Z,101715.59
2022-07-28T09:37:24.764Z,101722.16
2022-07-28T20:39:43.399Z,101615.81
2022-07-28T20:42:07.539Z,101621.13
2022-07-28T20:44:35.902Z,101614.91
2022-07-28T20:47:04.265Z,101617.59
2022-07-28T20:49:32.630Z,101615.09
2022-07-28T20:52:01.448Z,101618.38
2022-07-28T20:54:31.009Z,101622.22
2022-07-28T20:56:59.320Z,101627.72
2022-07-28T20:59:28.077Z,101628.41
2022-07-28T21:01:56.806Z,101629.50
2022-07-28T21:04:26.333Z,101626.28
2022-07-28T21:07:00.759Z,101626.28
2022-07-28T21:09:31.885Z,101627.19
2022-07-28T21:11:59.955Z,101635.44
2022-07-28T21:14:28.233Z,101631.84
2022-07-28T21:16:56.390Z,101639.53
2022-07-28T21:19:24.634Z,101640.28
2022-07-28T21:21:52.745Z,101637.75
2022-07-28T21:24:20.778Z,101640.63
2022-07-28T21:26:51.653Z,101648.91
2022-07-28T21:32:04.246Z,101646.16
2022-07-28T21:34:35.431Z,101651.03
2022-07-28T21:37:03.729Z,101651.19
2022-07-28T21:39:32.086Z,101643.38
2022-07-28T21:42:03.756Z,101641.53
2022-07-28T21:44:35.084Z,101645.50
2022-07-28T21:47:03.095Z,101646.75
2022-07-28T21:49:32.273Z,101640.41
2022-07-28T21:52:00.610Z,101649.53
2022-07-28T21:54:28.681Z,101647.28
2022-07-28T21:56:56.764Z,101638.22
2022-07-28T21:59:26.204Z,101646.34
2022-07-28T22:01:54.303Z,101645.66
2022-07-28T22:04:22.425Z,101641.69
2022-07-28T22:06:50.658Z,101637.97
2022-07-28T22:09:18.802Z,101646.09
2022-07-28T22:11:46.796Z,101646.09
2022-07-28T22:14:15.070Z,101643.81
2022-07-28T22:16:44.716Z,101634.91
2022-07-28T22:19:12.849Z,101641.84
2022-07-28T22:21:40.830Z,101642.91
2022-07-28T22:24:09.761Z,101656.28
2022-07-28T22:26:37.923Z,101655.41
2022-07-28T22:29:05.922Z,101658.00
2022-07-28T22:31:33.972Z,101666.16
2022-07-28T22:34:03.517Z,101660.13
2022-07-28T22:36:31.518Z,101653.00
2022-07-28T22:38:59.636Z,101653.78
2022-07-28T22:41:27.970Z,101652.06
2022-07-28T22:43:56.013Z,101661.03
2022-07-28T22:46:24.166Z,101666.41
2022-07-28T22:48:52.263Z,101665.50
2022-07-28T22:51:21.824Z,101667.47
2022-07-28T22:53:50.185Z,101661.53
2022-07-28T22:56:18.558Z,101663.28
2022-07-28T22:58:47.046Z,101663.31
2022-07-28T23:01:15.145Z,101662.50
2022-07-28T23:03:43.488Z,101665.25
2022-07-28T23:06:14.223Z,101667.06
2022-07-28T23:08:43.641Z,101669.03
2022-07-28T23:11:11.667Z,101668.16
2022-07-28T23:13:39.692Z,101664.69
2022-07-28T23:16:08.590Z,101662.09
2022-07-28T23:18:36.646Z,101665.06
2022-07-28T23:21:05.393Z,101669.09
2022-07-28T23:23:33.529Z,101660.25
2022-07-28T23:26:03.089Z,101671.91
2022-07-28T23:28:31.171Z,101674.50
2022-07-28T23:30:59.240Z,101679.06
2022-07-28T23:33:56.701Z,101675.44
2022-07-28T23:36:26.020Z,101676.22
2022-07-28T23:38:55.767Z,101681.56
2022-07-28T23:41:25.609Z,101686.16
2022-07-28T23:43:53.968Z,101680.91
2022-07-28T23:46:22.414Z,101680.03
2022-07-28T23:48:50.754Z,101690.88
2022-07-28T23:51:18.841Z,101688.44
2022-07-28T23:53:46.845Z,101686.53
2022-07-28T23:56:15.861Z,101682.22
2022-07-28T23:58:45.517Z,101682.34
